createdAt,value
2019-01-15T00:02:05.863Z,1.49
2019-01-15T00:07:27.821Z,1.69
2019-01-15T00:12:48.298Z,1.57
2019-01-15T00:18:09.270Z,1.47
2019-01-15T00:23:29.659Z,1.50
2019-01-15T00:28:50.968Z,1.67
2019-01-15T00:34:11.801Z,1.62
2019-01-15T00:39:32.655Z,1.72
2019-01-15T00:44:53.438Z,1.69
2019-01-15T00:50:14.768Z,1.62
2019-01-15T00:55:35.301Z,1.64
2019-01-15T01:00:59.292Z,1.54
2019-01-15T01:06:19.819Z,1.44
2019-01-15T01:11:40.054Z,1.42
2019-01-15T01:17:01.005Z,1.52
2019-01-15T01:22:21.399Z,1.53
2019-01-15T01:27:23.316Z,1.59
2019-01-15T01:32:25.484Z,1.69
2019-01-15T01:37:27.439Z,1.80
2019-01-15T01:42:29.774Z,1.76
2019-01-15T01:47:31.801Z,1.67
2019-01-15T01:52:33.838Z,1.45
2019-01-15T01:57:35.835Z,1.36
2019-01-15T02:02:38.007Z,1.14
2019-01-15T02:07:40.161Z,1.13
2019-01-15T02:12:42.165Z,1.16
2019-01-15T02:17:44.413Z,1.12
2019-01-15T02:22:46.623Z,1.20
2019-01-15T02:27:51.079Z,1.25
2019-01-15T02:32:54.289Z,1.21
2019-01-15T02:37:56.438Z,1.23
2019-01-15T02:42:58.538Z,1.29
2019-01-15T02:48:00.608Z,1.35
2019-01-15T02:53:02.633Z,1.40
2019-01-15T02:58:04.652Z,1.47
2019-01-15T03:03:06.677Z,1.31
2019-01-15T03:08:08.604Z,1.33
2019-01-15T03:13:10.614Z,1.36
2019-01-15T03:18:12.638Z,1.39
2019-01-15T03:23:14.643Z,1.27
2019-01-15T03:28:16.558Z,1.33
2019-01-15T03:33:19.591Z,1.41
2019-01-15T03:38:21.640Z,1.44
2019-01-15T03:43:23.566Z,1.49
2019-01-15T03:48:25.829Z,1.52
2019-01-15T03:53:27.850Z,1.55
2019-01-15T03:58:29.932Z,1.64
2019-01-15T04:03:32.043Z,1.64
2019-01-15T04:08:35.162Z,1.66
2019-01-15T04:13:37.436Z,1.73
2019-01-15T04:18:39.426Z,1.70
2019-01-15T04:23:41.333Z,1.78
2019-01-15T04:28:43.318Z,1.78
2019-01-15T04:33:45.218Z,1.74
2019-01-15T04:38:47.258Z,1.68
2019-01-15T04:43:49.331Z,1.77
2019-01-15T04:48:51.402Z,1.72
2019-01-15T04:53:53.359Z,1.69
2019-01-15T04:58:55.341Z,1.67
2019-01-15T05:03:57.440Z,1.71
2019-01-15T05:08:59.458Z,1.69
2019-01-15T05:14:02.133Z,1.77
2019-01-15T05:19:04.182Z,1.76
2019-01-15T05:24:06.370Z,1.81
2019-01-15T05:29:10.844Z,1.85
2019-01-15T05:34:13.083Z,1.82
2019-01-15T05:39:15.273Z,1.81
2019-01-15T05:44:17.757Z,1.77
2019-01-15T05:49:20.203Z,1.83
2019-01-15T05:54:22.505Z,1.80
2019-01-15T05:59:25.047Z,1.98
2019-01-15T06:04:28.314Z,1.97
2019-01-15T06:09:31.869Z,1.93
2019-01-15T06:14:34.323Z,1.99
2019-01-15T06:19:38.568Z,1.98
2019-01-15T06:24:40.726Z,2.10
2019-01-15T06:29:44.914Z,2.04
2019-01-15T06:34:47.155Z,2.08
2019-01-15T06:39:49.141Z,2.16
2019-01-15T06:44:51.090Z,2.20
2019-01-15T06:49:53.607Z,2.02
2019-01-15T06:54:55.855Z,2.21
2019-01-15T06:59:57.839Z,2.16
2019-01-15T07:05:00.026Z,2.17
2019-01-15T07:10:02.979Z,2.06
2019-01-15T07:15:05.436Z,2.17
2019-01-15T07:20:08.981Z,2.10
2019-01-15T07:25:13.135Z,2.08
2019-01-15T07:30:20.932Z,2.24
2019-01-15T07:35:23.120Z,2.21
2019-01-15T07:40:25.140Z,2.20
2019-01-15T07:45:27.340Z,2.25
2019-01-15T07:50:29.686Z,2.44
2019-01-15T07:55:31.918Z,2.41
2019-01-15T08:00:34.910Z,2.37
2019-01-15T08:05:36.915Z,2.38
2019-01-15T08:10:38.849Z,2.53
2019-01-15T08:15:40.833Z,2.52
2019-01-15T08:20:43.840Z,2.45
2019-01-15T08:25:45.855Z,2.43
2019-01-15T08:30:48.008Z,2.34
2019-01-15T08:35:49.946Z,2.35
2019-01-15T08:40:51.860Z,2.39
2019-01-15T08:45:55.370Z,2.29
2019-01-15T08:50:57.709Z,2.20
2019-01-15T08:56:00.229Z,2.29
2019-01-15T09:01:02.336Z,2.35
2019-01-15T09:06:04.243Z,2.30
2019-01-15T09:11:06.551Z,2.29
2019-01-15T09:16:08.720Z,2.19
2019-01-15T09:21:10.946Z,1.91
2019-01-15T09:26:12.877Z,1.88
2019-01-15T09:31:14.865Z,1.88
2019-01-15T09:36:16.785Z,2.03
2019-01-15T09:41:18.709Z,2.17
2019-01-15T09:46:20.748Z,2.24
2019-01-15T09:51:22.805Z,2.31
2019-01-15T09:56:24.735Z,2.35
2019-01-15T10:01:26.735Z,2.44
2019-01-15T10:06:28.759Z,2.54
2019-01-15T10:11:30.725Z,2.62
2019-01-15T10:16:32.767Z,2.68
2019-01-15T10:21:34.716Z,2.68
2019-01-15T10:26:36.746Z,2.72
2019-01-15T10:32:32.900Z,2.76
2019-01-15T10:37:36.258Z,2.92
2019-01-15T10:42:38.309Z,3.11
2019-01-15T10:47:40.350Z,3.15
2019-01-15T10:52:42.311Z,3.33
2019-01-15T10:57:44.364Z,3.38
2019-01-15T11:02:46.426Z,3.48
2019-01-15T11:07:48.656Z,3.50
2019-01-15T11:12:50.585Z,3.43
2019-01-15T11:17:52.607Z,3.38
2019-01-15T11:22:55.440Z,3.41
2019-01-15T11:27:57.366Z,3.29
2019-01-15T11:32:59.406Z,3.29
2019-01-15T11:38:01.421Z,3.28
2019-01-15T11:43:04.394Z,3.37
2019-01-15T11:48:06.805Z,3.38
2019-01-15T11:53:08.925Z,3.41
2019-01-15T11:58:10.848Z,3.48
2019-01-15T12:03:22.938Z,3.52
2019-01-15T12:08:36.171Z,3.62
2019-01-15T12:13:55.890Z,3.64
2019-01-15T12:19:35.763Z,3.72
2019-01-15T12:24:54.601Z,3.73
2019-01-15T12:30:18.540Z,3.82
2019-01-15T12:35:38.879Z,3.83
2019-01-15T12:40:57.091Z,3.95
2019-01-15T12:46:17.342Z,4.06
2019-01-15T12:51:39.296Z,4.07
2019-01-15T13:02:44.564Z,4.08
2019-01-15T13:08:00.616Z,4.14
2019-01-15T13:13:19.005Z,4.21
2019-01-15T13:18:39.063Z,4.23
2019-01-15T13:23:59.787Z,4.20
2019-01-15T13:29:16.776Z,4.20
2019-01-15T13:34:36.308Z,4.25
2019-01-15T13:40:01.258Z,4.25
2019-01-15T13:45:30.778Z,4.27
2019-01-15T13:50:48.286Z,4.35
2019-01-15T13:56:10.036Z,4.43
2019-01-15T14:01:43.642Z,4.47
2019-01-15T14:07:09.429Z,4.47
2019-01-15T14:12:34.241Z,4.51
2019-01-15T14:23:34.991Z,4.60
2019-01-15T14:28:56.600Z,4.49
2019-01-15T14:34:18.957Z,4.49
2019-01-15T14:39:52.594Z,4.55
2019-01-15T14:45:12.909Z,4.54
2019-01-15T14:50:33.508Z,4.52
2019-01-15T14:56:06.982Z,4.57
2019-01-15T15:01:37.399Z,4.52
2019-01-15T15:07:04.885Z,4.50
2019-01-15T15:12:26.554Z,4.53
2019-01-15T15:17:47.649Z,4.52
2019-01-15T15:23:00.168Z,4.51
2019-01-15T15:28:15.525Z,4.59
2019-01-15T15:33:31.457Z,4.63
2019-01-15T15:38:52.511Z,4.61
2019-01-15T15:44:13.502Z,4.66
2019-01-15T15:55:13.420Z,4.68
2019-01-15T16:00:38.080Z,4.64
2019-01-15T16:06:03.076Z,4.79
2019-01-15T16:11:27.180Z,4.82
2019-01-15T16:16:36.131Z,4.84
2019-01-15T16:21:53.830Z,4.84
2019-01-15T16:27:13.845Z,4.97
2019-01-15T16:32:38.001Z,4.94
2019-01-15T16:37:59.875Z,4.94
2019-01-15T16:43:35.176Z,4.97
2019-01-15T16:49:02.442Z,5.01
2019-01-15T16:54:23.155Z,5.08
2019-01-15T16:59:45.519Z,5.09
2019-01-15T17:05:13.820Z,5.08
2019-01-15T17:10:27.395Z,5.07
2019-01-15T17:16:01.352Z,5.09
2019-01-15T17:21:15.763Z,5.12
2019-01-15T17:26:37.359Z,5.15
2019-01-15T17:32:10.812Z,5.22
2019-01-15T17:37:27.114Z,5.30
2019-01-15T17:42:47.672Z,5.34
2019-01-15T17:48:18.412Z,5.39
2019-01-15T17:53:52.130Z,5.45
2019-01-15T17:59:03.942Z,5.51
2019-01-15T18:04:26.032Z,5.46
2019-01-15T18:09:47.596Z,5.41
2019-01-15T18:15:12.090Z,5.36
2019-01-15T18:20:27.272Z,5.36
2019-01-15T18:25:59.287Z,5.38
2019-01-15T18:31:33.000Z,5.48
2019-01-15T18:36:54.633Z,5.49
2019-01-15T18:42:16.534Z,5.53
2019-01-15T18:47:37.075Z,5.50
2019-01-15T18:52:46.041Z,5.46
2019-01-15T18:58:06.450Z,5.50
2019-01-15T19:03:26.886Z,5.45
2019-01-15T19:08:43.572Z,5.50
2019-01-15T19:14:03.987Z,5.57
2019-01-15T19:19:14.128Z,5.54
2019-01-15T19:24:35.749Z,5.58
2019-01-15T19:30:05.022Z,5.54
2019-01-15T19:41:43.411Z,5.61
2019-01-15T19:46:56.268Z,5.65
2019-01-15T19:52:06.478Z,5.69
2019-01-15T19:57:33.616Z,5.62
2019-01-15T20:02:45.260Z,5.67
2019-01-15T20:08:12.691Z,5.68
2019-01-15T20:13:34.793Z,5.74
2019-01-15T20:18:55.148Z,5.75
2019-01-15T20:24:19.547Z,5.80
2019-01-15T20:29:46.980Z,5.77
2019-01-15T20:34:59.383Z,5.74
2019-01-15T20:40:12.737Z,5.75
2019-01-15T20:45:49.709Z,5.74
2019-01-15T20:51:09.987Z,5.78
2019-01-15T20:56:26.682Z,5.74
2019-01-15T21:01:54.018Z,5.75
2019-01-15T21:07:14.216Z,5.77
2019-01-15T21:12:53.768Z,5.76
2019-01-15T21:18:24.379Z,5.75
2019-01-15T21:23:44.653Z,5.74
2019-01-15T21:29:04.808Z,5.80
2019-01-15T21:34:24.713Z,5.74
2019-01-15T21:39:55.150Z,5.69
2019-01-15T21:45:15.327Z,5.57
2019-01-15T21:50:37.045Z,5.47
2019-01-15T21:55:52.836Z,5.48
2019-01-15T22:01:13.112Z,5.53
2019-01-15T22:06:41.440Z,5.43
2019-01-15T22:12:13.723Z,5.36
2019-01-15T22:17:47.346Z,5.36
2019-01-15T22:23:13.824Z,5.44
2019-01-15T22:28:24.108Z,5.51
2019-01-15T22:33:48.741Z,5.49
2019-01-15T22:39:09.041Z,5.52
2019-01-15T22:44:21.724Z,5.56
2019-01-15T22:49:46.427Z,5.67
2019-01-15T22:55:09.599Z,5.70
2019-01-15T23:00:46.025Z,5.69
2019-01-15T23:06:01.090Z,5.71
2019-01-15T23:11:26.794Z,5.68
2019-01-15T23:16:39.330Z,5.71
2019-01-15T23:22:06.780Z,5.68
2019-01-15T23:27:31.285Z,5.77
2019-01-15T23:32:42.091Z,5.74
2019-01-15T23:38:06.260Z,5.90
2019-01-15T23:43:27.068Z,5.84
2019-01-15T23:48:47.060Z,5.89
2019-01-15T23:53:59.010Z,5.91
2019-01-15T23:59:20.296Z,5.92
